sensor_id;sensor_type;location;lat;lon;timestamp;P1;durP1;ratioP1;P2;durP2;ratioP2
26040;SDS011;13816;53.628;9.950;2023-02-22T00:01:49;48.20;;;20.50;;
26040;SDS011;13816;53.628;9.950;2023-02-22T00:04:41;46.43;;;19.70;;
26040;SDS011;13816;53.628;9.950;2023-02-22T00:07:27;56.30;;;21.00;;
26040;SDS011;13816;53.628;9.950;2023-02-22T00:09:55;49.97;;;20.67;;
26040;SDS011;13816;53.628;9.950;2023-02-22T00:12:47;64.97;;;21.87;;
26040;SDS011;13816;53.628;9.950;2023-02-22T00:15:15;48.07;;;22.00;;
26040;SDS011;13816;53.628;9.950;2023-02-22T00:17:59;46.07;;;20.07;;
26040;SDS011;13816;53.628;9.950;2023-02-22T00:21:23;57.37;;;22.60;;
26040;SDS011;13816;53.628;9.950;2023-02-22T00:24:01;57.30;;;22.07;;
26040;SDS011;13816;53.628;9.950;2023-02-22T00:26:51;59.57;;;22.03;;
26040;SDS011;13816;53.628;9.950;2023-02-22T00:29:22;47.10;;;20.53;;
26040;SDS011;13816;53.628;9.950;2023-02-22T00:32:10;63.83;;;24.07;;
26040;SDS011;13816;53.628;9.950;2023-02-22T00:34:56;52.90;;;21.03;;
26040;SDS011;13816;53.628;9.950;2023-02-22T00:37:29;53.30;;;21.70;;
26040;SDS011;13816;53.628;9.950;2023-02-22T00:39:58;43.63;;;21.60;;
26040;SDS011;13816;53.628;9.950;2023-02-22T00:42:31;60.73;;;23.30;;
26040;SDS011;13816;53.628;9.950;2023-02-22T00:45:58;57.10;;;22.73;;
26040;SDS011;13816;53.628;9.950;2023-02-22T00:48:34;55.80;;;22.77;;
26040;SDS011;13816;53.628;9.950;2023-02-22T00:51:23;51.80;;;21.63;;
26040;SDS011;13816;53.628;9.950;2023-02-22T00:54:01;59.20;;;22.07;;
26040;SDS011;13816;53.628;9.950;2023-02-22T00:56:33;60.73;;;21.53;;
26040;SDS011;13816;53.628;9.950;2023-02-22T00:59:17;74.50;;;24.70;;
26040;SDS011;13816;53.628;9.950;2023-02-22T01:01:47;63.20;;;22.47;;
26040;SDS011;13816;53.628;9.950;2023-02-22T01:04:18;66.07;;;24.37;;
26040;SDS011;13816;53.628;9.950;2023-02-22T01:06:44;76.13;;;24.90;;
26040;SDS011;13816;53.628;9.950;2023-02-22T01:09:33;64.53;;;22.80;;
26040;SDS011;13816;53.628;9.950;2023-02-22T01:12:10;63.67;;;23.70;;
26040;SDS011;13816;53.628;9.950;2023-02-22T01:15:03;71.30;;;24.37;;
26040;SDS011;13816;53.628;9.950;2023-02-22T01:17:50;70.47;;;23.47;;
26040;SDS011;13816;53.628;9.950;2023-02-22T01:20:42;74.57;;;22.90;;
26040;SDS011;13816;53.628;9.950;2023-02-22T01:23:34;73.73;;;25.23;;
26040;SDS011;13816;53.628;9.950;2023-02-22T01:26:00;65.20;;;24.30;;
26040;SDS011;13816;53.628;9.950;2023-02-22T01:28:32;82.80;;;26.23;;
26040;SDS011;13816;53.628;9.950;2023-02-22T01:31:00;78.00;;;25.23;;
26040;SDS011;13816;53.628;9.950;2023-02-22T01:33:27;63.30;;;24.20;;
26040;SDS011;13816;53.628;9.950;2023-02-22T01:35:53;71.10;;;23.90;;
26040;SDS011;13816;53.628;9.950;2023-02-22T01:38:19;74.13;;;24.70;;
26040;SDS011;13816;53.628;9.950;2023-02-22T01:40:47;68.47;;;23.70;;
26040;SDS011;13816;53.628;9.950;2023-02-22T01:43:22;61.90;;;23.60;;
26040;SDS011;13816;53.628;9.950;2023-02-22T01:51:29;66.93;;;24.47;;
26040;SDS011;13816;53.628;9.950;2023-02-22T01:56:17;64.60;;;23.97;;
26040;SDS011;13816;53.628;9.950;2023-02-22T01:58:45;70.57;;;24.83;;
26040;SDS011;13816;53.628;9.950;2023-02-22T02:01:22;72.13;;;23.60;;
26040;SDS011;13816;53.628;9.950;2023-02-22T02:03:49;66.13;;;25.60;;
26040;SDS011;13816;53.628;9.950;2023-02-22T02:06:16;61.30;;;24.77;;
26040;SDS011;13816;53.628;9.950;2023-02-22T02:08:45;72.70;;;23.40;;
26040;SDS011;13816;53.628;9.950;2023-02-22T02:11:18;93.50;;;25.67;;
26040;SDS011;13816;53.628;9.950;2023-02-22T02:13:45;68.23;;;24.70;;
26040;SDS011;13816;53.628;9.950;2023-02-22T02:16:11;83.67;;;26.17;;
26040;SDS011;13816;53.628;9.950;2023-02-22T02:18:42;68.77;;;23.90;;
26040;SDS011;13816;53.628;9.950;2023-02-22T02:34:22;82.17;;;24.80;;
26040;SDS011;13816;53.628;9.950;2023-02-22T02:36:59;78.80;;;25.57;;
26040;SDS011;13816;53.628;9.950;2023-02-22T02:42:13;77.83;;;24.20;;
26040;SDS011;13816;53.628;9.950;2023-02-22T02:45:05;71.97;;;24.17;;
26040;SDS011;13816;53.628;9.950;2023-02-22T02:47:54;70.97;;;23.57;;
26040;SDS011;13816;53.628;9.950;2023-02-22T02:56:13;81.10;;;24.33;;
26040;SDS011;13816;53.628;9.950;2023-02-22T02:58:49;93.77;;;24.70;;
26040;SDS011;13816;53.628;9.950;2023-02-22T03:01:34;66.97;;;22.83;;
26040;SDS011;13816;53.628;9.950;2023-02-22T03:06:54;70.30;;;25.17;;
26040;SDS011;13816;53.628;9.950;2023-02-22T03:09:36;68.90;;;24.07;;
26040;SDS011;13816;53.628;9.950;2023-02-22T03:12:11;75.60;;;24.47;;
26040;SDS011;13816;53.628;9.950;2023-02-22T03:15:27;82.80;;;25.87;;
26040;SDS011;13816;53.628;9.950;2023-02-22T03:20:08;74.03;;;24.63;;
26040;SDS011;13816;53.628;9.950;2023-02-22T03:23:01;76.27;;;22.53;;
26040;SDS011;13816;53.628;9.950;2023-02-22T03:25:32;58.07;;;23.37;;
26040;SDS011;13816;53.628;9.950;2023-02-22T03:28:02;54.90;;;21.10;;
26040;SDS011;13816;53.628;9.950;2023-02-22T03:35:55;54.47;;;22.13;;
26040;SDS011;13816;53.628;9.950;2023-02-22T03:38:24;47.83;;;22.17;;
26040;SDS011;13816;53.628;9.950;2023-02-22T03:40:53;52.87;;;22.47;;
26040;SDS011;13816;53.628;9.950;2023-02-22T03:43:24;45.37;;;21.20;;
26040;SDS011;13816;53.628;9.950;2023-02-22T03:45:58;52.13;;;22.23;;
26040;SDS011;13816;53.628;9.950;2023-02-22T03:50:54;50.63;;;21.83;;
26040;SDS011;13816;53.628;9.950;2023-02-22T03:53:22;49.53;;;20.30;;
26040;SDS011;13816;53.628;9.950;2023-02-22T03:55:49;44.40;;;21.70;;
26040;SDS011;13816;53.628;9.950;2023-02-22T03:58:19;54.17;;;22.47;;
26040;SDS011;13816;53.628;9.950;2023-02-22T04:00:47;45.80;;;21.03;;
26040;SDS011;13816;53.628;9.950;2023-02-22T04:03:20;51.83;;;22.67;;
26040;SDS011;13816;53.628;9.950;2023-02-22T04:05:51;51.00;;;21.93;;
26040;SDS011;13816;53.628;9.950;2023-02-22T04:08:18;59.67;;;23.77;;
26040;SDS011;13816;53.628;9.950;2023-02-22T04:10:45;46.03;;;20.73;;
26040;SDS011;13816;53.628;9.950;2023-02-22T04:13:14;56.00;;;22.53;;
26040;SDS011;13816;53.628;9.950;2023-02-22T04:15:44;51.50;;;21.83;;
26040;SDS011;13816;53.628;9.950;2023-02-22T04:18:13;51.80;;;22.17;;
26040;SDS011;13816;53.628;9.950;2023-02-22T04:20:40;49.40;;;22.00;;
26040;SDS011;13816;53.628;9.950;2023-02-22T04:23:14;48.83;;;21.90;;
26040;SDS011;13816;53.628;9.950;2023-02-22T04:25:45;58.17;;;21.83;;
26040;SDS011;13816;53.628;9.950;2023-02-22T04:28:15;40.53;;;18.90;;
26040;SDS011;13816;53.628;9.950;2023-02-22T04:30:48;57.50;;;22.00;;
26040;SDS011;13816;53.628;9.950;2023-02-22T04:33:16;52.80;;;22.20;;
26040;SDS011;13816;53.628;9.950;2023-02-22T04:35:42;43.93;;;21.30;;
26040;SDS011;13816;53.628;9.950;2023-02-22T04:38:11;38.17;;;19.47;;
26040;SDS011;13816;53.628;9.950;2023-02-22T04:40:39;50.67;;;21.40;;
26040;SDS011;13816;53.628;9.950;2023-02-22T04:43:06;44.03;;;21.10;;
26040;SDS011;13816;53.628;9.950;2023-02-22T04:45:32;46.20;;;19.80;;
26040;SDS011;13816;53.628;9.950;2023-02-22T04:47:59;50.17;;;20.80;;
26040;SDS011;13816;53.628;9.950;2023-02-22T04:50:26;44.03;;;20.37;;
26040;SDS011;13816;53.628;9.950;2023-02-22T04:52:53;51.40;;;22.70;;
26040;SDS011;13816;53.628;9.950;2023-02-22T04:55:20;41.07;;;20.07;;
26040;SDS011;13816;53.628;9.950;2023-02-22T04:57:49;51.57;;;19.47;;
26040;SDS011;13816;53.628;9.950;2023-02-22T05:00:22;40.80;;;20.20;;
26040;SDS011;13816;53.628;9.950;2023-02-22T05:02:53;54.40;;;19.40;;
26040;SDS011;13816;53.628;9.950;2023-02-22T05:05:19;43.53;;;18.30;;
26040;SDS011;13816;53.628;9.950;2023-02-22T05:07:46;42.07;;;20.13;;
26040;SDS011;13816;53.628;9.950;2023-02-22T05:10:20;42.33;;;19.83;;
26040;SDS011;13816;53.628;9.950;2023-02-22T05:12:57;39.60;;;18.90;;
26040;SDS011;13816;53.628;9.950;2023-02-22T05:15:23;41.57;;;19.90;;
26040;SDS011;13816;53.628;9.950;2023-02-22T05:17:52;46.87;;;19.90;;
26040;SDS011;13816;53.628;9.950;2023-02-22T05:20:29;47.63;;;20.73;;
26040;SDS011;13816;53.628;9.950;2023-02-22T05:22:56;40.63;;;20.23;;
26040;SDS011;13816;53.628;9.950;2023-02-22T05:25:23;45.37;;;20.10;;
26040;SDS011;13816;53.628;9.950;2023-02-22T05:27:50;38.57;;;20.20;;
26040;SDS011;13816;53.628;9.950;2023-02-22T05:30:16;44.37;;;21.10;;
26040;SDS011;13816;53.628;9.950;2023-02-22T05:32:43;65.13;;;22.83;;
26040;SDS011;13816;53.628;9.950;2023-02-22T05:35:09;43.53;;;21.90;;
26040;SDS011;13816;53.628;9.950;2023-02-22T05:37:35;48.73;;;21.57;;
26040;SDS011;13816;53.628;9.950;2023-02-22T05:40:04;54.57;;;24.37;;
26040;SDS011;13816;53.628;9.950;2023-02-22T05:42:31;59.93;;;23.97;;
26040;SDS011;13816;53.628;9.950;2023-02-22T05:44:58;57.47;;;23.67;;
26040;SDS011;13816;53.628;9.950;2023-02-22T05:47:27;58.38;;;27.67;;
26040;SDS011;13816;53.628;9.950;2023-02-22T05:49:53;59.83;;;26.70;;
26040;SDS011;13816;53.628;9.950;2023-02-22T05:52:19;65.77;;;24.30;;
26040;SDS011;13816;53.628;9.950;2023-02-22T05:54:49;64.47;;;25.47;;
26040;SDS011;13816;53.628;9.950;2023-02-22T05:57:15;68.90;;;25.73;;
26040;SDS011;13816;53.628;9.950;2023-02-22T06:02:13;68.90;;;25.37;;
26040;SDS011;13816;53.628;9.950;2023-02-22T06:04:42;83.20;;;26.50;;
26040;SDS011;13816;53.628;9.950;2023-02-22T06:07:09;60.20;;;21.20;;
26040;SDS011;13816;53.628;9.950;2023-02-22T06:09:35;75.40;;;26.50;;
26040;SDS011;13816;53.628;9.950;2023-02-22T06:12:04;66.00;;;23.30;;
26040;SDS011;13816;53.628;9.950;2023-02-22T06:14:33;69.93;;;25.77;;
26040;SDS011;13816;53.628;9.950;2023-02-22T06:16:59;70.33;;;25.20;;
26040;SDS011;13816;53.628;9.950;2023-02-22T06:19:25;75.80;;;25.47;;
26040;SDS011;13816;53.628;9.950;2023-02-22T06:21:55;80.30;;;25.13;;
26040;SDS011;13816;53.628;9.950;2023-02-22T06:24:27;75.73;;;26.53;;
26040;SDS011;13816;53.628;9.950;2023-02-22T06:26:54;88.93;;;27.03;;
26040;SDS011;13816;53.628;9.950;2023-02-22T06:29:21;68.17;;;26.30;;
26040;SDS011;13816;53.628;9.950;2023-02-22T06:31:48;85.13;;;28.23;;
26040;SDS011;13816;53.628;9.950;2023-02-22T06:34:14;79.43;;;27.13;;
26040;SDS011;13816;53.628;9.950;2023-02-22T06:36:40;84.17;;;27.33;;
26040;SDS011;13816;53.628;9.950;2023-02-22T06:39:06;85.70;;;26.63;;
26040;SDS011;13816;53.628;9.950;2023-02-22T06:41:36;71.10;;;26.37;;
26040;SDS011;13816;53.628;9.950;2023-02-22T06:44:03;75.00;;;28.03;;
26040;SDS011;13816;53.628;9.950;2023-02-22T06:46:29;84.70;;;26.90;;
26040;SDS011;13816;53.628;9.950;2023-02-22T06:48:56;69.50;;;25.77;;
26040;SDS011;13816;53.628;9.950;2023-02-22T06:51:25;84.77;;;26.83;;
26040;SDS011;13816;53.628;9.950;2023-02-22T06:53:51;79.17;;;25.70;;
26040;SDS011;13816;53.628;9.950;2023-02-22T06:56:25;64.80;;;26.00;;
26040;SDS011;13816;53.628;9.950;2023-02-22T06:58:54;80.67;;;27.00;;
26040;SDS011;13816;53.628;9.950;2023-02-22T07:01:20;66.57;;;26.90;;
26040;SDS011;13816;53.628;9.950;2023-02-22T07:03:49;75.37;;;25.57;;
26040;SDS011;13816;53.628;9.950;2023-02-22T07:06:18;82.93;;;25.63;;
26040;SDS011;13816;53.628;9.950;2023-02-22T07:08:48;64.63;;;25.87;;
26040;SDS011;13816;53.628;9.950;2023-02-22T07:12:01;79.67;;;23.93;;
26040;SDS011;13816;53.628;9.950;2023-02-22T07:14:34;58.87;;;25.00;;
26040;SDS011;13816;53.628;9.950;2023-02-22T07:17:00;52.17;;;22.33;;
26040;SDS011;13816;53.628;9.950;2023-02-22T07:19:27;74.90;;;24.43;;
26040;SDS011;13816;53.628;9.950;2023-02-22T07:21:53;63.20;;;25.40;;
26040;SDS011;13816;53.628;9.950;2023-02-22T07:24:39;75.57;;;24.83;;
26040;SDS011;13816;53.628;9.950;2023-02-22T07:29:56;66.77;;;24.97;;
26040;SDS011;13816;53.628;9.950;2023-02-22T07:32:26;67.03;;;26.53;;
26040;SDS011;13816;53.628;9.950;2023-02-22T07:35:03;65.20;;;24.20;;
26040;SDS011;13816;53.628;9.950;2023-02-22T07:37:51;76.83;;;25.73;;
26040;SDS011;13816;53.628;9.950;2023-02-22T07:40:42;75.20;;;24.93;;
26040;SDS011;13816;53.628;9.950;2023-02-22T07:46:48;70.27;;;24.83;;
26040;SDS011;13816;53.628;9.950;2023-02-22T07:49:58;76.13;;;25.47;;
26040;SDS011;13816;53.628;9.950;2023-02-22T07:53:03;61.27;;;23.13;;
26040;SDS011;13816;53.628;9.950;2023-02-22T07:55:38;68.73;;;25.00;;
26040;SDS011;13816;53.628;9.950;2023-02-22T08:02:10;57.50;;;21.97;;
26040;SDS011;13816;53.628;9.950;2023-02-22T08:11:33;54.13;;;22.13;;
26040;SDS011;13816;53.628;9.950;2023-02-22T08:14:04;54.77;;;22.93;;
26040;SDS011;13816;53.628;9.950;2023-02-22T08:16:42;55.30;;;23.10;;
26040;SDS011;13816;53.628;9.950;2023-02-22T08:20:02;47.80;;;20.40;;
26040;SDS011;13816;53.628;9.950;2023-02-22T08:23:21;49.73;;;21.67;;
26040;SDS011;13816;53.628;9.950;2023-02-22T08:26:22;49.40;;;21.83;;
26040;SDS011;13816;53.628;9.950;2023-02-22T08:29:33;52.50;;;22.13;;
26040;SDS011;13816;53.628;9.950;2023-02-22T08:32:24;46.90;;;21.37;;
26040;SDS011;13816;53.628;9.950;2023-02-22T08:35:17;44.97;;;21.13;;
26040;SDS011;13816;53.628;9.950;2023-02-22T08:41:14;52.47;;;21.07;;
26040;SDS011;13816;53.628;9.950;2023-02-22T08:43:47;43.37;;;20.43;;
26040;SDS011;13816;53.628;9.950;2023-02-22T08:46:38;43.33;;;19.57;;
26040;SDS011;13816;53.628;9.950;2023-02-22T08:49:27;50.30;;;21.27;;
26040;SDS011;13816;53.628;9.950;2023-02-22T08:51:56;41.60;;;19.70;;
26040;SDS011;13816;53.628;9.950;2023-02-22T08:54:36;44.07;;;19.97;;
26040;SDS011;13816;53.628;9.950;2023-02-22T08:57:35;37.10;;;18.97;;
26040;SDS011;13816;53.628;9.950;2023-02-22T09:03:50;33.20;;;16.70;;
26040;SDS011;13816;53.628;9.950;2023-02-22T09:06:46;31.13;;;17.20;;
26040;SDS011;13816;53.628;9.950;2023-02-22T09:09:19;32.83;;;18.17;;
26040;SDS011;13816;53.628;9.950;2023-02-22T09:12:01;30.90;;;16.87;;
26040;SDS011;13816;53.628;9.950;2023-02-22T09:15:24;33.80;;;17.27;;
26040;SDS011;13816;53.628;9.950;2023-02-22T09:17:51;28.00;;;17.07;;
26040;SDS011;13816;53.628;9.950;2023-02-22T09:20:26;29.47;;;16.87;;
26040;SDS011;13816;53.628;9.950;2023-02-22T09:23:08;31.80;;;18.47;;
26040;SDS011;13816;53.628;9.950;2023-02-22T09:25:43;31.67;;;17.37;;
26040;SDS011;13816;53.628;9.950;2023-02-22T09:28:24;32.53;;;18.53;;
26040;SDS011;13816;53.628;9.950;2023-02-22T09:31:02;32.63;;;17.60;;
26040;SDS011;13816;53.628;9.950;2023-02-22T09:33:40;34.97;;;18.50;;
26040;SDS011;13816;53.628;9.950;2023-02-22T09:36:16;41.30;;;21.10;;
26040;SDS011;13816;53.628;9.950;2023-02-22T09:39:08;42.47;;;23.33;;
26040;SDS011;13816;53.628;9.950;2023-02-22T09:44:58;43.33;;;21.70;;
26040;SDS011;13816;53.628;9.950;2023-02-22T09:47:58;40.70;;;22.60;;
26040;SDS011;13816;53.628;9.950;2023-02-22T09:50:41;40.50;;;23.53;;
26040;SDS011;13816;53.628;9.950;2023-02-22T09:56:45;44.17;;;24.70;;
26040;SDS011;13816;53.628;9.950;2023-02-22T09:59:56;46.20;;;27.20;;
26040;SDS011;13816;53.628;9.950;2023-02-22T10:05:26;48.17;;;22.27;;
26040;SDS011;13816;53.628;9.950;2023-02-22T10:08:48;39.07;;;20.33;;
26040;SDS011;13816;53.628;9.950;2023-02-22T10:11:59;36.57;;;20.10;;
26040;SDS011;13816;53.628;9.950;2023-02-22T10:31:56;34.33;;;18.20;;
26040;SDS011;13816;53.628;9.950;2023-02-22T10:35:00;35.93;;;18.50;;
26040;SDS011;13816;53.628;9.950;2023-02-22T10:37:48;31.27;;;18.17;;
26040;SDS011;13816;53.628;9.950;2023-02-22T10:44:43;36.60;;;18.77;;
26040;SDS011;13816;53.628;9.950;2023-02-22T10:47:53;29.77;;;17.23;;
26040;SDS011;13816;53.628;9.950;2023-02-22T10:50:52;29.13;;;15.53;;
26040;SDS011;13816;53.628;9.950;2023-02-22T10:57:09;27.57;;;16.70;;
26040;SDS011;13816;53.628;9.950;2023-02-22T10:59:40;29.77;;;17.50;;
26040;SDS011;13816;53.628;9.950;2023-02-22T11:09:48;29.97;;;18.63;;
26040;SDS011;13816;53.628;9.950;2023-02-22T11:12:39;35.00;;;19.07;;
26040;SDS011;13816;53.628;9.950;2023-02-22T11:16:16;35.43;;;19.57;;
26040;SDS011;13816;53.628;9.950;2023-02-22T11:18:58;28.80;;;19.87;;
26040;SDS011;13816;53.628;9.950;2023-02-22T11:25:35;26.67;;;18.57;;
26040;SDS011;13816;53.628;9.950;2023-02-22T11:28:28;32.33;;;19.50;;
26040;SDS011;13816;53.628;9.950;2023-02-22T11:34:28;29.73;;;18.23;;
26040;SDS011;13816;53.628;9.950;2023-02-22T11:41:17;33.63;;;19.63;;
26040;SDS011;13816;53.628;9.950;2023-02-22T11:51:24;26.63;;;17.20;;
26040;SDS011;13816;53.628;9.950;2023-02-22T12:36:33;28.07;;;17.73;;
26040;SDS011;13816;53.628;9.950;2023-02-22T12:39:32;30.07;;;17.10;;
26040;SDS011;13816;53.628;9.950;2023-02-22T12:52:56;26.97;;;17.07;;
26040;SDS011;13816;53.628;9.950;2023-02-22T13:12:41;24.07;;;16.67;;
26040;SDS011;13816;53.628;9.950;2023-02-22T13:16:14;28.70;;;16.83;;
26040;SDS011;13816;53.628;9.950;2023-02-22T13:22:20;24.00;;;15.83;;
26040;SDS011;13816;53.628;9.950;2023-02-22T13:39:10;22.70;;;14.50;;
26040;SDS011;13816;53.628;9.950;2023-02-22T14:10:15;16.87;;;12.30;;
26040;SDS011;13816;53.628;9.950;2023-02-22T15:53:53;26.97;;;15.77;;
26040;SDS011;13816;53.628;9.950;2023-02-22T15:56:56;25.30;;;14.70;;
26040;SDS011;13816;53.628;9.950;2023-02-22T16:06:51;24.80;;;15.40;;
26040;SDS011;13816;53.628;9.950;2023-02-22T16:27:03;21.23;;;13.93;;
26040;SDS011;13816;53.628;9.950;2023-02-22T16:33:41;18.73;;;13.63;;
26040;SDS011;13816;53.628;9.950;2023-02-22T16:36:18;23.57;;;14.80;;
26040;SDS011;13816;53.628;9.950;2023-02-22T16:39:11;25.77;;;15.20;;
26040;SDS011;13816;53.628;9.950;2023-02-22T16:42:13;29.20;;;15.90;;
26040;SDS011;13816;53.628;9.950;2023-02-22T16:44:51;29.60;;;15.50;;
26040;SDS011;13816;53.628;9.950;2023-02-22T16:47:30;26.13;;;16.50;;
26040;SDS011;13816;53.628;9.950;2023-02-22T16:50:04;23.33;;;14.53;;
26040;SDS011;13816;53.628;9.950;2023-02-22T16:52:44;24.77;;;14.90;;
26040;SDS011;13816;53.628;9.950;2023-02-22T16:55:12;21.90;;;14.40;;
26040;SDS011;13816;53.628;9.950;2023-02-22T16:57:54;22.60;;;14.30;;
26040;SDS011;13816;53.628;9.950;2023-02-22T17:00:27;24.00;;;15.33;;
26040;SDS011;13816;53.628;9.950;2023-02-22T17:03:17;24.90;;;15.90;;
26040;SDS011;13816;53.628;9.950;2023-02-22T17:05:43;28.23;;;14.80;;
26040;SDS011;13816;53.628;9.950;2023-02-22T17:08:12;37.17;;;21.47;;
26040;SDS011;13816;53.628;9.950;2023-02-22T17:10:41;30.97;;;19.60;;
26040;SDS011;13816;53.628;9.950;2023-02-22T17:19:25;27.73;;;15.60;;
26040;SDS011;13816;53.628;9.950;2023-02-22T17:23:02;27.10;;;16.37;;
26040;SDS011;13816;53.628;9.950;2023-02-22T17:26:00;24.33;;;16.50;;
26040;SDS011;13816;53.628;9.950;2023-02-22T17:29:16;28.37;;;17.23;;
26040;SDS011;13816;53.628;9.950;2023-02-22T17:32:05;26.73;;;15.97;;
26040;SDS011;13816;53.628;9.950;2023-02-22T17:38:38;29.37;;;18.20;;
26040;SDS011;13816;53.628;9.950;2023-02-22T17:42:12;27.77;;;17.50;;
26040;SDS011;13816;53.628;9.950;2023-02-22T17:44:55;27.63;;;15.83;;
26040;SDS011;13816;53.628;9.950;2023-02-22T17:47:48;31.20;;;17.30;;
26040;SDS011;13816;53.628;9.950;2023-02-22T17:51:04;31.30;;;18.53;;
26040;SDS011;13816;53.628;9.950;2023-02-22T17:53:52;30.27;;;17.43;;
26040;SDS011;13816;53.628;9.950;2023-02-22T17:56:31;31.47;;;16.80;;
26040;SDS011;13816;53.628;9.950;2023-02-22T17:59:57;28.40;;;15.97;;
26040;SDS011;13816;53.628;9.950;2023-02-22T18:03:08;34.03;;;18.20;;
26040;SDS011;13816;53.628;9.950;2023-02-22T18:05:48;29.10;;;17.63;;
26040;SDS011;13816;53.628;9.950;2023-02-22T18:08:25;28.20;;;16.77;;
26040;SDS011;13816;53.628;9.950;2023-02-22T18:11:28;26.63;;;17.50;;
26040;SDS011;13816;53.628;9.950;2023-02-22T18:13:57;25.87;;;14.77;;
26040;SDS011;13816;53.628;9.950;2023-02-22T18:17:17;24.03;;;16.80;;
26040;SDS011;13816;53.628;9.950;2023-02-22T18:20:45;32.80;;;20.47;;
26040;SDS011;13816;53.628;9.950;2023-02-22T18:23:28;24.10;;;17.00;;
26040;SDS011;13816;53.628;9.950;2023-02-22T18:26:40;28.80;;;16.83;;
26040;SDS011;13816;53.628;9.950;2023-02-22T18:29:16;27.17;;;16.90;;
26040;SDS011;13816;53.628;9.950;2023-02-22T18:32:13;32.10;;;18.83;;
26040;SDS011;13816;53.628;9.950;2023-02-22T18:35:30;28.73;;;16.53;;
26040;SDS011;13816;53.628;9.950;2023-02-22T18:38:14;32.10;;;17.77;;
26040;SDS011;13816;53.628;9.950;2023-02-22T18:41:15;27.53;;;15.67;;
26040;SDS011;13816;53.628;9.950;2023-02-22T18:43:59;26.97;;;16.23;;
26040;SDS011;13816;53.628;9.950;2023-02-22T18:47:28;30.33;;;17.37;;
26040;SDS011;13816;53.628;9.950;2023-02-22T18:50:38;27.07;;;16.03;;
26040;SDS011;13816;53.628;9.950;2023-02-22T18:53:44;29.17;;;16.20;;
26040;SDS011;13816;53.628;9.950;2023-02-22T18:57:07;23.90;;;15.53;;
26040;SDS011;13816;53.628;9.950;2023-02-22T19:00:33;22.60;;;14.20;;
26040;SDS011;13816;53.628;9.950;2023-02-22T19:03:08;26.00;;;14.60;;
26040;SDS011;13816;53.628;9.950;2023-02-22T19:06:00;20.33;;;13.93;;
26040;SDS011;13816;53.628;9.950;2023-02-22T19:09:13;25.40;;;14.90;;
26040;SDS011;13816;53.628;9.950;2023-02-22T19:15:00;20.73;;;14.10;;
26040;SDS011;13816;53.628;9.950;2023-02-22T19:18:09;21.93;;;14.17;;
26040;SDS011;13816;53.628;9.950;2023-02-22T19:20:38;28.13;;;15.60;;
26040;SDS011;13816;53.628;9.950;2023-02-22T19:23:27;23.47;;;14.50;;
26040;SDS011;13816;53.628;9.950;2023-02-22T19:26:04;27.23;;;15.13;;
26040;SDS011;13816;53.628;9.950;2023-02-22T19:28:41;26.97;;;17.00;;
26040;SDS011;13816;53.628;9.950;2023-02-22T19:31:14;27.35;;;16.30;;
26040;SDS011;13816;53.628;9.950;2023-02-22T19:36:39;23.83;;;15.17;;
26040;SDS011;13816;53.628;9.950;2023-02-22T19:39:09;31.77;;;16.97;;
26040;SDS011;13816;53.628;9.950;2023-02-22T19:42:36;21.77;;;15.23;;
26040;SDS011;13816;53.628;9.950;2023-02-22T19:45:31;25.83;;;16.00;;
26040;SDS011;13816;53.628;9.950;2023-02-22T19:48:25;22.27;;;15.33;;
26040;SDS011;13816;53.628;9.950;2023-02-22T19:51:11;23.93;;;15.80;;
26040;SDS011;13816;53.628;9.950;2023-02-22T19:53:58;33.40;;;16.87;;
26040;SDS011;13816;53.628;9.950;2023-02-22T20:00:24;24.03;;;15.93;;
26040;SDS011;13816;53.628;9.950;2023-02-22T20:03:14;22.93;;;15.27;;
26040;SDS011;13816;53.628;9.950;2023-02-22T20:06:33;23.23;;;15.90;;
26040;SDS011;13816;53.628;9.950;2023-02-22T20:09:54;29.93;;;18.20;;
26040;SDS011;13816;53.628;9.950;2023-02-22T20:12:56;25.30;;;16.00;;
26040;SDS011;13816;53.628;9.950;2023-02-22T20:16:00;25.00;;;16.70;;
26040;SDS011;13816;53.628;9.950;2023-02-22T20:19:27;31.17;;;16.73;;
26040;SDS011;13816;53.628;9.950;2023-02-22T20:22:30;30.87;;;16.80;;
26040;SDS011;13816;53.628;9.950;2023-02-22T20:25:21;26.73;;;16.93;;
26040;SDS011;13816;53.628;9.950;2023-02-22T20:28:16;26.87;;;16.07;;
26040;SDS011;13816;53.628;9.950;2023-02-22T20:30:57;27.40;;;16.80;;
26040;SDS011;13816;53.628;9.950;2023-02-22T20:34:09;34.47;;;18.37;;
26040;SDS011;13816;53.628;9.950;2023-02-22T20:37:21;29.53;;;18.50;;
26040;SDS011;13816;53.628;9.950;2023-02-22T20:40:24;29.37;;;18.10;;
26040;SDS011;13816;53.628;9.950;2023-02-22T20:43:31;31.40;;;19.47;;
26040;SDS011;13816;53.628;9.950;2023-02-22T20:46:27;25.17;;;16.33;;
26040;SDS011;13816;53.628;9.950;2023-02-22T20:49:15;36.43;;;17.43;;
26040;SDS011;13816;53.628;9.950;2023-02-22T20:52:18;30.93;;;17.57;;
26040;SDS011;13816;53.628;9.950;2023-02-22T20:55:29;28.17;;;17.00;;
26040;SDS011;13816;53.628;9.950;2023-02-22T20:58:45;25.17;;;16.40;;
26040;SDS011;13816;53.628;9.950;2023-02-22T21:01:19;29.70;;;18.43;;
26040;SDS011;13816;53.628;9.950;2023-02-22T21:04:16;25.83;;;15.17;;
26040;SDS011;13816;53.628;9.950;2023-02-22T21:07:12;27.30;;;16.67;;
26040;SDS011;13816;53.628;9.950;2023-02-22T21:09:48;30.40;;;17.43;;
26040;SDS011;13816;53.628;9.950;2023-02-22T21:12:40;29.73;;;17.00;;
26040;SDS011;13816;53.628;9.950;2023-02-22T21:15:09;29.97;;;17.60;;
26040;SDS011;13816;53.628;9.950;2023-02-22T21:17:39;32.20;;;18.03;;
26040;SDS011;13816;53.628;9.950;2023-02-22T21:20:31;25.90;;;17.67;;
26040;SDS011;13816;53.628;9.950;2023-02-22T21:22:57;30.73;;;17.90;;
26040;SDS011;13816;53.628;9.950;2023-02-22T21:25:29;28.90;;;17.67;;
26040;SDS011;13816;53.628;9.950;2023-02-22T21:28:35;26.47;;;16.90;;
26040;SDS011;13816;53.628;9.950;2023-02-22T21:31:07;27.07;;;16.97;;
26040;SDS011;13816;53.628;9.950;2023-02-22T21:33:47;29.10;;;18.63;;
26040;SDS011;13816;53.628;9.950;2023-02-22T21:36:43;27.60;;;17.57;;
26040;SDS011;13816;53.628;9.950;2023-02-22T21:39:38;33.33;;;19.37;;
26040;SDS011;13816;53.628;9.950;2023-02-22T21:42:21;33.10;;;18.80;;
26040;SDS011;13816;53.628;9.950;2023-02-22T21:45:10;30.73;;;19.03;;
26040;SDS011;13816;53.628;9.950;2023-02-22T21:48:07;31.00;;;19.07;;
26040;SDS011;13816;53.628;9.950;2023-02-22T21:54:07;27.63;;;16.67;;
26040;SDS011;13816;53.628;9.950;2023-02-22T21:57:43;28.63;;;17.20;;
26040;SDS011;13816;53.628;9.950;2023-02-22T22:01:19;32.60;;;18.87;;
26040;SDS011;13816;53.628;9.950;2023-02-22T22:04:01;27.90;;;16.83;;
26040;SDS011;13816;53.628;9.950;2023-02-22T22:06:34;33.83;;;18.97;;
26040;SDS011;13816;53.628;9.950;2023-02-22T22:09:31;33.57;;;19.10;;
26040;SDS011;13816;53.628;9.950;2023-02-22T22:13:21;29.13;;;18.40;;
26040;SDS011;13816;53.628;9.950;2023-02-22T22:16:36;29.33;;;18.87;;
26040;SDS011;13816;53.628;9.950;2023-02-22T22:19:37;28.90;;;18.10;;
26040;SDS011;13816;53.628;9.950;2023-02-22T22:22:34;28.70;;;18.30;;
26040;SDS011;13816;53.628;9.950;2023-02-22T22:25:21;29.93;;;17.87;;
26040;SDS011;13816;53.628;9.950;2023-02-22T22:30:50;32.10;;;19.57;;
26040;SDS011;13816;53.628;9.950;2023-02-22T22:34:04;30.40;;;18.93;;
26040;SDS011;13816;53.628;9.950;2023-02-22T22:36:31;30.00;;;18.47;;